Time;durP1;ratioP1;P1;durP2;ratioP2;P2;SDS_P1;SDS_P2;PMS_P1;PMS_P2;Temp;Humidity;BMP_temperature;BMP_pressure;BME280_temperature;BME280_humidity;BME280_pressure;Samples;Min_cycle;Max_cycle;Signal;HPM_P1;HPM_P2
2023/09/10 04:01:24;;;;;;;0.60;0.20;;;20.90;99.90;;;;;;5409897;23;20501;-67
2023/09/10 04:03:52;;;;;;;0.60;0.20;;;20.80;99.90;;;;;;4899348;29;20482;-68
2023/09/10 04:06:21;;;;;;;0.60;0.10;;;20.60;99.90;;;;;;4899133;29;20456;-67
2023/09/10 04:08:48;;;;;;;0.60;0.20;;;20.40;99.90;;;;;;4900106;29;20545;-67
2023/09/10 04:11:16;;;;;;;0.60;0.10;;;20.40;99.90;;;;;;4898988;29;20904;-68
2023/09/10 04:13:45;;;;;;;0.60;0.20;;;20.20;99.90;;;;;;4918460;23;20484;-67
2023/09/10 04:16:13;;;;;;;0.60;0.10;;;20.20;99.90;;;;;;4897629;29;20495;-67
2023/09/10 04:18:43;;;;;;;0.60;0.10;;;;;;;;;;4897435;29;20450;-67
2023/09/10 04:21:14;;;;;;;0.60;0.20;;;;;;;;;;4898398;29;20449;-68
2023/09/10 04:23:42;;;;;;;0.60;0.20;;;20.30;99.90;;;;;;4898356;29;20532;-67
2023/09/10 04:26:12;;;;;;;0.60;0.10;;;20.20;99.90;;;;;;4898187;29;20836;-66
2023/09/10 04:28:40;;;;;;;0.60;0.10;;;20.20;99.90;;;;;;4896569;29;20457;-67
2023/09/10 04:31:14;;;;;;;0.60;0.10;;;20.10;99.90;;;;;;4893789;29;20513;-68
2023/09/10 04:33:44;;;;;;;0.60;0.20;;;20.10;99.90;;;;;;4880068;29;20484;-67
2023/09/10 04:36:13;;;;;;;0.60;0.13;;;;;;;;;;4885763;29;20453;-67
2023/09/10 04:38:42;;;;;;;0.60;0.10;;;;;;;;;;4897538;29;20519;-67
2023/09/10 04:41:09;;;;;;;0.60;0.10;;;20.20;99.90;;;;;;4892557;29;20512;-67
2023/09/10 04:43:37;;;;;;;0.60;0.10;;;20.40;99.90;;;;;;4879966;29;20484;-67
2023/09/10 04:46:05;;;;;;;0.60;0.20;;;;;;;;;;4882587;29;20511;-67
2023/09/10 04:48:33;;;;;;;0.60;0.10;;;20.40;99.90;;;;;;4899512;29;20453;-67
2023/09/10 04:51:03;;;;;;;0.60;0.10;;;20.30;99.90;;;;;;4895252;29;20453;-67
2023/09/10 04:53:31;;;;;;;0.60;0.10;;;20.30;99.90;;;;;;4900435;29;21273;-67
2023/09/10 04:55:59;;;;;;;0.60;0.10;;;20.30;99.90;;;;;;4898859;29;20459;-68
2023/09/10 04:58:27;;;;;;;0.60;0.17;;;20.20;99.90;;;;;;4897677;29;21039;-67
2023/09/10 05:00:56;;;;;;;0.60;0.10;;;20.30;99.90;;;;;;4879266;29;20481;-67
2023/09/10 05:03:24;;;;;;;0.60;0.10;;;20.30;99.90;;;;;;4878915;29;20477;-68
2023/09/10 05:05:57;;;;;;;0.60;0.10;;;20.20;99.90;;;;;;4890079;29;20500;-67
2023/09/10 05:08:27;;;;;;;0.60;0.20;;;20.00;99.90;;;;;;4897656;29;20475;-66
2023/09/10 05:10:55;;;;;;;0.60;0.20;;;19.90;99.90;;;;;;4896874;29;20464;-67
2023/09/10 05:13:24;;;;;;;0.60;0.10;;;19.80;99.90;;;;;;4895872;29;20567;-67
2023/09/10 05:15:54;;;;;;;0.60;0.17;;;19.80;99.90;;;;;;4896020;29;20542;-66
2023/09/10 05:18:22;;;;;;;0.60;0.20;;;19.90;99.90;;;;;;4896948;29;20605;-66
2023/09/10 05:20:52;;;;;;;0.60;0.10;;;;;;;;;;4898085;29;20870;-66
2023/09/10 05:23:20;;;;;;;0.97;0.77;;;20.00;99.90;;;;;;4897169;29;21011;-67
2023/09/10 05:25:49;;;;;;;0.60;0.40;;;20.00;99.90;;;;;;4897278;29;20445;-67
2023/09/10 05:28:17;;;;;;;0.60;0.10;;;20.10;99.90;;;;;;4897328;29;20456;-67
2023/09/10 05:30:45;;;;;;;0.60;0.20;;;20.20;99.90;;;;;;4897460;29;20457;-67
2023/09/10 05:33:14;;;;;;;0.60;0.10;;;20.20;99.90;;;;;;4885583;29;20449;-67
2023/09/10 05:35:43;;;;;;;0.60;0.20;;;20.20;99.90;;;;;;4896704;29;20810;-67
2023/09/10 05:38:11;;;;;;;0.60;0.10;;;20.20;99.90;;;;;;4896590;29;20543;-67
2023/09/10 05:40:40;;;;;;;0.60;0.10;;;;;;;;;;4896380;29;20461;-68
2023/09/10 05:43:09;;;;;;;1.57;0.30;;;20.30;99.90;;;;;;4896814;29;20456;-67
2023/09/10 05:45:37;;;;;;;0.60;0.20;;;20.30;99.90;;;;;;4896560;29;20509;-68
2023/09/10 05:48:05;;;;;;;0.60;0.20;;;20.20;99.90;;;;;;4896700;29;20495;-67
2023/09/10 05:50:33;;;;;;;0.60;0.10;;;20.20;99.90;;;;;;4896295;29;20463;-67
2023/09/10 05:53:01;;;;;;;1.27;0.30;;;20.20;99.90;;;;;;4894967;29;20487;-66
2023/09/10 05:55:29;;;;;;;0.60;0.10;;;20.30;99.90;;;;;;4896218;29;20453;-66
2023/09/10 05:57:57;;;;;;;0.60;0.20;;;20.30;99.90;;;;;;4895929;29;20571;-67
2023/09/10 06:00:30;;;;;;;0.60;0.10;;;20.30;99.90;;;;;;4896435;29;20453;-67
2023/09/10 06:02:59;;;;;;;0.83;0.17;;;;;;;;;;4895017;29;20457;-67
2023/09/10 06:05:27;;;;;;;0.90;0.57;;;;;;;;;;4888374;29;20453;-68
2023/09/10 06:07:58;;;;;;;3.50;3.20;;;20.30;99.90;;;;;;4895595;29;20976;-67
2023/09/10 06:10:26;;;;;;;0.60;0.10;;;;;;;;;;4895358;29;20504;-67
2023/09/10 06:12:55;;;;;;;0.60;0.10;;;;;;;;;;4881265;29;20924;-68
2023/09/10 06:15:23;;;;;;;0.60;0.20;;;20.50;99.90;;;;;;4896437;29;20452;-70
2023/09/10 06:17:52;;;;;;;0.60;0.10;;;20.50;99.90;;;;;;4887056;29;20528;-68
2023/09/10 06:20:20;;;;;;;1.53;0.77;;;17.50;99.90;;;;;;4894018;29;20453;-67
2023/09/10 06:22:54;;;;;;;0.60;0.23;;;20.50;99.90;;;;;;4894954;29;20958;-68
2023/09/10 06:25:21;;;;;;;0.60;0.10;;;20.50;99.90;;;;;;4892664;29;20484;-68
2023/09/10 06:27:50;;;;;;;0.60;0.10;;;20.50;99.90;;;;;;4895847;29;21190;-68
2023/09/10 06:30:17;;;;;;;0.60;0.20;;;20.40;99.90;;;;;;4896180;29;20564;-68
2023/09/10 06:32:45;;;;;;;0.60;0.10;;;20.40;99.90;;;;;;4890636;29;20489;-67
2023/09/10 06:35:15;;;;;;;0.60;0.10;;;20.40;99.90;;;;;;4889745;29;20473;-67
2023/09/10 06:37:43;;;;;;;1.53;0.77;;;20.40;99.90;;;;;;4892911;29;20449;-67
2023/09/10 06:40:13;;;;;;;0.60;0.10;;;20.30;99.90;;;;;;4892357;29;20461;-67
2023/09/10 06:42:41;;;;;;;0.60;0.10;;;20.40;99.90;;;;;;4895948;29;20449;-67
2023/09/10 06:45:09;;;;;;;0.60;0.10;;;20.50;99.90;;;;;;4891075;29;20708;-67
2023/09/10 06:47:37;;;;;;;0.70;0.63;;;20.50;99.90;;;;;;4895617;29;20484;-68
2023/09/10 06:50:06;;;;;;;0.60;0.10;;;20.60;99.90;;;;;;4893191;29;20468;-67
2023/09/10 06:52:36;;;;;;;0.60;0.10;;;20.60;99.90;;;;;;4895513;29;20453;-67
2023/09/10 06:55:04;;;;;;;0.60;0.10;;;20.60;99.90;;;;;;4894662;29;20527;-67
2023/09/10 06:57:32;;;;;;;0.60;0.10;;;20.70;99.90;;;;;;4895566;29;20484;-67
2023/09/10 07:00:00;;;;;;;0.60;0.10;;;20.80;99.90;;;;;;4897461;29;20591;-72
2023/09/10 07:02:29;;;;;;;0.60;0.10;;;;;;;;;;4896686;29;20449;-74
2023/09/10 07:04:57;;;;;;;0.60;0.10;;;;;;;;;;4892075;29;20477;-73
2023/09/10 07:07:26;;;;;;;0.60;0.27;;;;;;;;;;4897847;29;20456;-72
2023/09/10 07:09:55;;;;;;;0.60;0.10;;;;;;;;;;4899551;29;20488;-73
2023/09/10 07:12:23;;;;;;;0.60;0.10;;;;;;;;;;4904217;29;21228;-71
2023/09/10 07:14:51;;;;;;;0.60;0.10;;;;;;;;;;4903754;29;20541;-70
2023/09/10 07:17:20;;;;;;;0.60;0.10;;;;;;;;;;4900871;29;20537;-73
2023/09/10 07:19:48;;;;;;;0.60;0.20;;;21.00;99.90;;;;;;4896316;29;20481;-72
2023/09/10 07:22:16;;;;;;;0.60;0.10;;;21.00;99.90;;;;;;4891773;29;20455;-72
2023/09/10 07:24:44;;;;;;;0.60;0.10;;;;;;;;;;4894421;29;20492;-73
2023/09/10 07:27:16;;;;;;;3.17;2.47;;;;;;;;;;4894428;29;20453;-74
2023/09/10 07:29:44;;;;;;;0.60;0.20;;;21.30;99.90;;;;;;4883910;29;20556;-74
2023/09/10 07:32:12;;;;;;;0.60;0.20;;;21.40;99.90;;;;;;4895528;29;20453;-73
2023/09/10 07:34:40;;;;;;;0.60;0.20;;;21.50;99.90;;;;;;4893095;29;20505;-74
2023/09/10 07:37:08;;;;;;;0.60;0.20;;;;;;;;;;4890807;29;20460;-73
2023/09/10 07:39:39;;;;;;;0.60;0.10;;;;;;;;;;4898046;29;20485;-73
2023/09/10 07:42:07;;;;;;;0.60;0.13;;;21.70;99.90;;;;;;4884406;29;20805;-74
2023/09/10 07:44:36;;;;;;;0.60;0.10;;;21.70;99.90;;;;;;4889929;29;21020;-73
2023/09/10 07:47:04;;;;;;;0.60;0.10;;;21.70;99.90;;;;;;4897611;29;20545;-71
2023/09/10 07:49:32;;;;;;;0.60;0.20;;;21.80;99.90;;;;;;4898360;29;20450;-73
2023/09/10 07:52:03;;;;;;;0.60;0.20;;;21.90;99.90;;;;;;4897881;29;20539;-74
2023/09/10 07:54:31;;;;;;;0.60;0.10;;;22.00;99.90;;;;;;4897034;29;21015;-74
2023/09/10 07:56:59;;;;;;;0.60;0.10;;;22.00;99.90;;;;;;4895699;29;20555;-73
2023/09/10 07:59:27;;;;;;;0.60;0.10;;;;;;;;;;4894276;29;21031;-75
2023/09/10 08:01:56;;;;;;;0.60;0.10;;;22.10;99.90;;;;;;4896414;29;20549;-73
2023/09/10 08:04:25;;;;;;;0.60;0.10;;;;;;;;;;4881379;29;20474;-72
2023/09/10 08:06:53;;;;;;;0.60;0.30;;;22.20;99.90;;;;;;4885442;29;20560;-73
2023/09/10 08:09:21;;;;;;;0.60;0.10;;;;;;;;;;4893730;29;20537;-73
2023/09/10 08:11:52;;;;;;;1.23;1.13;;;22.30;99.90;;;;;;4894096;29;20536;-71
2023/09/10 08:14:19;;;;;;;0.60;0.10;;;22.30;99.90;;;;;;4895261;29;20832;-72
2023/09/10 08:16:48;;;;;;;0.60;0.10;;;;;;;;;;4891409;29;20465;-73
2023/09/10 08:19:17;;;;;;;0.60;0.20;;;22.40;99.90;;;;;;4896801;29;20561;-74
2023/09/10 08:21:45;;;;;;;0.60;0.10;;;22.40;99.90;;;;;;4891249;29;20492;-72
2023/09/10 08:24:13;;;;;;;0.60;0.10;;;22.40;99.90;;;;;;4893772;29;20497;-73
2023/09/10 08:26:41;;;;;;;0.60;0.20;;;;;;;;;;4897432;29;20449;-72
2023/09/10 08:29:09;;;;;;;0.60;0.20;;;;;;;;;;4897474;29;20541;-73
2023/09/10 08:31:37;;;;;;;0.60;0.20;;;22.70;99.90;;;;;;4892543;29;20501;-72
2023/09/10 08:34:05;;;;;;;0.70;0.30;;;22.70;99.90;;;;;;4895909;29;20465;-72
2023/09/10 08:36:34;;;;;;;0.60;0.10;;;22.70;99.90;;;;;;4895738;29;20449;-73
2023/09/10 08:39:02;;;;;;;0.60;0.10;;;22.70;99.90;;;;;;4893424;29;20837;-74
2023/09/10 08:41:38;;;;;;;0.93;0.20;;;22.70;99.90;;;;;;4888876;29;20476;-72
2023/09/10 08:44:10;;;;;;;0.70;0.20;;;22.80;99.90;;;;;;4894360;29;20584;-71
2023/09/10 08:46:39;;;;;;;0.60;0.13;;;22.90;99.90;;;;;;4893813;29;20472;-73
2023/09/10 08:49:09;;;;;;;0.60;0.20;;;23.00;99.90;;;;;;4891095;29;20459;-71
2023/09/10 08:51:39;;;;;;;0.60;0.10;;;23.10;99.90;;;;;;4895106;29;20560;-72
2023/09/10 08:54:08;;;;;;;0.60;0.10;;;23.10;99.90;;;;;;4893460;29;20512;-72
2023/09/10 08:56:37;;;;;;;0.60;0.10;;;;;;;;;;4893736;29;20484;-72
2023/09/10 08:59:06;;;;;;;0.60;0.20;;;23.10;99.90;;;;;;4889557;29;20450;-73
2023/09/10 09:01:35;;;;;;;0.60;0.20;;;23.20;99.90;;;;;;4891809;29;20442;-73
2023/09/10 09:04:04;;;;;;;0.60;0.10;;;23.30;99.90;;;;;;4892113;29;20525;-72
2023/09/10 09:06:37;;;;;;;0.60;0.20;;;23.30;99.90;;;;;;4896035;29;20580;-72
2023/09/10 09:09:07;;;;;;;0.60;0.20;;;23.40;99.90;;;;;;4889205;29;20449;-73
2023/09/10 09:11:36;;;;;;;0.60;0.10;;;23.50;99.90;;;;;;4896731;29;20524;-74
2023/09/10 09:14:09;;;;;;;0.60;0.20;;;23.60;99.90;;;;;;4896184;29;20480;-72
2023/09/10 09:16:40;;;;;;;0.60;0.10;;;23.60;99.90;;;;;;4881344;29;21016;-73
2023/09/10 09:19:11;;;;;;;0.70;0.10;;;23.70;99.90;;;;;;4888938;29;20465;-73
2023/09/10 09:21:41;;;;;;;0.70;0.20;;;23.80;99.90;;;;;;4897324;29;20445;-72
2023/09/10 09:24:14;;;;;;;0.60;0.10;;;23.80;99.90;;;;;;4898251;29;20473;-73
2023/09/10 09:26:43;;;;;;;0.70;0.10;;;23.90;99.90;;;;;;4897559;29;20473;-73
2023/09/10 09:29:12;;;;;;;0.70;0.20;;;24.00;99.90;;;;;;4889866;29;20509;-71
2023/09/10 09:31:40;;;;;;;0.70;0.20;;;;;;;;;;4891402;29;20469;-73
2023/09/10 09:34:09;;;;;;;0.70;0.17;;;;;;;;;;4895840;29;20464;-73
2023/09/10 09:36:42;;;;;;;0.70;0.20;;;24.20;99.90;;;;;;4895812;29;20953;-72
2023/09/10 09:39:17;;;;;;;0.70;0.10;;;24.30;99.90;;;;;;4889531;29;20505;-73
2023/09/10 09:41:47;;;;;;;0.70;0.10;;;24.30;99.90;;;;;;4895613;29;20444;-73
2023/09/10 09:44:16;;;;;;;0.70;0.20;;;;;;;;;;4895817;29;20509;-72
2023/09/10 09:46:45;;;;;;;0.70;0.20;;;;;;;;;;4895553;29;20526;-74
2023/09/10 09:49:13;;;;;;;0.70;0.20;;;;;;;;;;4896453;29;20860;-74
2023/09/10 09:51:41;;;;;;;0.70;0.10;;;24.70;99.90;;;;;;4895496;29;20540;-73
2023/09/10 09:54:09;;;;;;;0.70;0.10;;;;;;;;;;4895181;29;20477;-74
2023/09/10 09:56:39;;;;;;;0.70;0.20;;;24.80;98.40;;;;;;4896034;29;20481;-72
2023/09/10 09:59:07;;;;;;;0.70;0.10;;;;;;;;;;4896318;29;20553;-72
2023/09/10 10:01:36;;;;;;;0.70;0.17;;;24.90;92.70;;;;;;4895943;29;20489;-73
2023/09/10 10:04:04;;;;;;;0.70;0.20;;;25.00;91.40;;;;;;4892671;29;20480;-74
2023/09/10 10:06:32;;;;;;;0.70;0.10;;;25.10;93.10;;;;;;4895659;29;20805;-74
2023/09/10 10:09:15;;;;;;;0.70;0.10;;;25.20;93.80;;;;;;4896273;29;20476;-73
2023/09/10 10:11:44;;;;;;;0.70;0.10;;;25.20;91.40;;;;;;4895014;29;20541;-74
2023/09/10 10:14:12;;;;;;;0.70;0.20;;;;;;;;;;4893703;29;20473;-75
2023/09/10 10:16:42;;;;;;;0.70;0.10;;;;;;;;;;4893044;29;20445;-74
2023/09/10 10:19:11;;;;;;;0.70;0.10;;;;;;;;;;4894178;29;20503;-74
2023/09/10 10:21:39;;;;;;;0.70;0.20;;;;;;;;;;4894660;29;20814;-74
2023/09/10 10:24:09;;;;;;;0.70;0.37;;;25.60;82.70;;;;;;4892424;29;20469;-74
2023/09/10 10:26:42;;;;;;;0.70;0.10;;;25.60;79.80;;;;;;4894839;29;20469;-74
2023/09/10 10:29:12;;;;;;;0.70;0.10;;;25.70;81.10;;;;;;4892417;29;20457;-74
2023/09/10 10:31:42;;;;;;;0.70;0.20;;;25.80;80.00;;;;;;4894260;29;20524;-73
2023/09/10 10:34:13;;;;;;;0.70;0.20;;;25.80;77.80;;;;;;4891810;29;20492;-71
2023/09/10 10:36:55;;;;;;;0.70;0.10;;;25.80;75.10;;;;;;4891306;29;20975;-72
2023/09/10 10:39:28;;;;;;;0.70;0.20;;;25.90;74.30;;;;;;4893818;29;20492;-71
2023/09/10 10:42:00;;;;;;;0.70;0.20;;;26.00;74.30;;;;;;4895046;29;20538;-74
2023/09/10 10:44:34;;;;;;;1.40;1.30;;;26.10;74.90;;;;;;4891810;29;20553;-72
2023/09/10 10:47:10;;;;;;;0.70;0.10;;;26.20;76.00;;;;;;4894425;29;20453;-74
2023/09/10 10:49:43;;;;;;;0.70;0.10;;;26.20;76.20;;;;;;4894578;29;20534;-74
2023/09/10 10:52:13;;;;;;;0.70;0.20;;;23.90;73.50;;;;;;4892709;29;20521;-73
2023/09/10 10:54:44;;;;;;;0.70;0.10;;;26.40;74.90;;;;;;4891838;29;20465;-73
2023/09/10 10:57:12;;;;;;;0.70;0.10;;;26.40;69.60;;;;;;4887408;29;20505;-73
2023/09/10 10:59:42;;;;;;;0.73;0.23;;;;;;;;;;4893478;29;20454;-72
2023/09/10 11:02:21;;;;;;;0.70;0.20;;;26.50;67.90;;;;;;4891392;29;20487;-73
2023/09/10 11:04:57;;;;;;;0.70;0.10;;;26.60;69.40;;;;;;4892542;29;20497;-73
2023/09/10 11:07:29;;;;;;;0.70;0.10;;;;;;;;;;4892334;29;20474;-73
2023/09/10 11:09:57;;;;;;;0.70;0.20;;;26.80;68.00;;;;;;4893843;29;20981;-72
2023/09/10 11:12:26;;;;;;;0.70;0.20;;;26.90;67.20;;;;;;4897070;29;20456;-70
2023/09/10 11:15:12;;;;;;;0.70;0.10;;;26.90;64.40;;;;;;4897577;29;20543;-70
2023/09/10 11:17:40;;;;;;;0.70;0.10;;;26.90;63.60;;;;;;4893731;29;20933;-71
2023/09/10 11:20:09;;;;;;;0.70;0.10;;;27.00;62.30;;;;;;4897757;29;20454;-72
2023/09/10 11:23:12;;;;;;;2.00;1.90;;;27.00;59.20;;;;;;4895307;29;20883;-72
2023/09/10 11:25:41;;;;;;;0.70;0.10;;;;;;;;;;4895615;29;20821;-71
2023/09/10 11:28:40;;;;;;;1.33;0.73;;;27.20;60.40;;;;;;4897653;29;20488;-72
2023/09/10 11:31:41;;;;;;;0.70;0.10;;;27.20;59.80;;;;;;4897179;29;20958;-71
2023/09/10 11:34:39;;;;;;;0.70;0.10;;;27.30;58.10;;;;;;4897049;29;20500;-72
2023/09/10 11:37:09;;;;;;;0.70;0.10;;;27.40;56.90;;;;;;4896919;29;20512;-72
2023/09/10 11:39:38;;;;;;;0.70;0.10;;;27.50;56.80;;;;;;4897731;29;20455;-72
2023/09/10 11:42:11;;;;;;;0.70;0.20;;;27.40;53.40;;;;;;4887528;29;21078;-72
2023/09/10 11:44:39;;;;;;;0.70;0.10;;;27.50;55.00;;;;;;4895805;29;21005;-72
2023/09/10 11:47:09;;;;;;;0.70;0.20;;;27.50;55.80;;;;;;4897358;29;20530;-73
2023/09/10 11:49:37;;;;;;;0.80;0.20;;;;;;;;;;4897172;29;20451;-71
2023/09/10 11:52:08;;;;;;;0.70;0.20;;;27.60;48.80;;;;;;4894450;29;20451;-74
2023/09/10 11:54:36;;;;;;;0.70;0.30;;;27.70;47.40;;;;;;4897861;29;20463;-74
2023/09/10 11:57:04;;;;;;;0.70;0.20;;;27.70;43.40;;;;;;4894329;29;20509;-71
2023/09/10 11:59:32;;;;;;;0.70;0.20;;;27.80;40.90;;;;;;4893112;29;20524;-70
2023/09/10 12:02:02;;;;;;;0.70;0.10;;;;;;;;;;4893042;29;21057;-71
2023/09/10 12:04:33;;;;;;;0.70;0.20;;;27.90;36.40;;;;;;4897402;29;20555;-71
2023/09/10 12:07:02;;;;;;;0.70;0.10;;;27.90;35.10;;;;;;4897236;29;20818;-70
2023/09/10 12:09:30;;;;;;;0.70;0.10;;;28.00;36.20;;;;;;4896794;29;20990;-70
2023/09/10 12:12:03;;;;;;;0.70;0.20;;;28.00;36.70;;;;;;4897356;29;20470;-70
2023/09/10 12:14:32;;;;;;;0.70;0.10;;;28.00;36.30;;;;;;4896794;29;20519;-70
2023/09/10 12:17:00;;;;;;;0.70;0.20;;;28.00;34.30;;;;;;4896496;29;20463;-71
2023/09/10 12:19:29;;;;;;;0.70;0.20;;;;;;;;;;4896648;29;20817;-70
2023/09/10 12:21:58;;;;;;;0.70;0.10;;;28.20;27.50;;;;;;4896839;29;20578;-70
2023/09/10 12:24:26;;;;;;;0.70;0.20;;;28.20;27.70;;;;;;4896866;29;20469;-70
2023/09/10 12:26:54;;;;;;;0.70;0.10;;;28.20;26.60;;;;;;4897187;29;20516;-70
2023/09/10 12:29:22;;;;;;;2.00;1.03;;;28.20;28.50;;;;;;4897148;29;20531;-70
2023/09/10 12:31:54;;;;;;;0.70;0.10;;;28.20;28.30;;;;;;4896994;29;20539;-70
2023/09/10 12:34:22;;;;;;;0.70;0.20;;;28.20;24.50;;;;;;4898593;29;20481;-70
2023/09/10 12:36:51;;;;;;;0.70;0.10;;;28.30;21.00;;;;;;4897965;29;20500;-70
2023/09/10 12:39:22;;;;;;;0.70;0.20;;;28.40;23.20;;;;;;4892124;29;20519;-71
2023/09/10 12:41:50;;;;;;;0.70;0.10;;;;;;;;;;4897169;29;20698;-71
2023/09/10 12:44:18;;;;;;;0.70;0.20;;;;;;;;;;4895733;29;20878;-72
2023/09/10 12:46:46;;;;;;;0.70;0.10;;;28.60;20.20;;;;;;4896740;29;20945;-71
2023/09/10 12:49:15;;;;;;;0.70;0.10;;;28.70;20.70;;;;;;4896550;29;20477;-71
2023/09/10 12:51:43;;;;;;;0.70;0.10;;;;;;;;;;4889349;29;20479;-70
2023/09/10 12:54:12;;;;;;;0.70;0.20;;;28.70;15.00;;;;;;4895446;29;20926;-71
2023/09/10 12:56:42;;;;;;;0.80;0.20;;;28.70;15.90;;;;;;4896283;29;20508;-72
2023/09/10 12:59:11;;;;;;;0.70;0.10;;;28.80;15.70;;;;;;4896933;29;20752;-70
2023/09/10 13:01:40;;;;;;;0.70;0.20;;;28.70;12.70;;;;;;4896783;29;20575;-70
2023/09/10 13:04:08;;;;;;;0.70;0.10;;;28.80;11.90;;;;;;4896054;29;20536;-70
2023/09/10 13:06:36;;;;;;;0.77;0.40;;;28.80;10.60;;;;;;4893535;29;20464;-72
2023/09/10 13:09:05;;;;;;;1.00;0.90;;;28.80;10.50;;;;;;4894671;29;20465;-70
2023/09/10 13:11:33;;;;;;;0.70;0.10;;;;;;;;;;4895477;29;20460;-70
2023/09/10 13:14:03;;;;;;;0.87;0.37;;;28.90;8.40;;;;;;4894304;29;20600;-69
2023/09/10 13:16:31;;;;;;;0.70;0.10;;;;;;;;;;4893707;29;20913;-71
2023/09/10 13:19:01;;;;;;;0.70;0.20;;;29.10;9.30;;;;;;4894744;29;20489;-69
2023/09/10 13:21:30;;;;;;;0.70;0.10;;;;;;;;;;4889713;29;20528;-70
2023/09/10 13:23:58;;;;;;;0.70;0.10;;;29.20;5.50;;;;;;4892967;29;20548;-70
2023/09/10 13:26:26;;;;;;;0.87;0.40;;;29.20;2.10;;;;;;4895993;29;20509;-70
2023/09/10 13:28:54;;;;;;;0.70;0.17;;;29.20;1.00;;;;;;4892850;29;20536;-69
2023/09/10 13:31:23;;;;;;;0.70;0.17;;;29.20;1.00;;;;;;4895620;29;20995;-71
2023/09/10 13:33:51;;;;;;;0.70;0.20;;;29.20;1.00;;;;;;4892673;29;20987;-70
2023/09/10 13:36:20;;;;;;;0.70;0.20;;;;;;;;;;4894300;29;21003;-71
2023/09/10 13:38:48;;;;;;;0.70;0.20;;;29.20;1.00;;;;;;4895293;29;20484;-69
2023/09/10 13:41:17;;;;;;;0.70;0.10;;;29.20;1.00;;;;;;4895029;29;21085;-71
2023/09/10 13:43:44;;;;;;;0.70;0.20;;;29.20;1.00;;;;;;4888440;29;20584;-71
2023/09/10 13:46:13;;;;;;;0.80;0.27;;;;;;;;;;4884158;29;20533;-70
2023/09/10 13:48:43;;;;;;;0.70;0.17;;;;;;;;;;4890793;29;20469;-70
2023/09/10 13:51:10;;;;;;;0.70;0.10;;;29.30;1.00;;;;;;4891004;29;20464;-71
2023/09/10 13:53:41;;;;;;;0.70;0.10;;;29.30;1.00;;;;;;4891725;29;20505;-70
2023/09/10 13:56:11;;;;;;;0.70;0.10;;;29.30;1.00;;;;;;4893580;29;20463;-70
2023/09/10 13:58:39;;;;;;;0.70;0.17;;;29.30;1.00;;;;;;4895218;29;20461;-70
2023/09/10 14:01:09;;;;;;;0.70;0.20;;;29.30;1.00;;;;;;4895275;29;20460;-71
2023/09/10 14:03:37;;;;;;;0.70;0.30;;;29.30;1.00;;;;;;4895322;29;20925;-71
2023/09/10 14:06:08;;;;;;;0.70;0.20;;;29.30;1.00;;;;;;4895280;29;20544;-71
2023/09/10 14:08:37;;;;;;;0.70;0.20;;;29.40;1.00;;;;;;4888376;29;20454;-69
2023/09/10 14:11:06;;;;;;;0.70;0.20;;;;;;;;;;4881705;29;20508;-71
2023/09/10 14:13:34;;;;;;;0.70;0.20;;;29.30;1.00;;;;;;4894465;29;20532;-70
2023/09/10 14:16:02;;;;;;;0.70;0.10;;;;;;;;;;4894588;29;20529;-71
2023/09/10 14:18:30;;;;;;;0.70;0.10;;;29.40;1.00;;;;;;4894513;29;20532;-69
2023/09/10 14:20:58;;;;;;;0.70;0.10;;;29.40;1.00;;;;;;4888252;29;20450;-68
2023/09/10 14:23:32;;;;;;;0.70;0.10;;;29.50;1.00;;;;;;4883368;29;21044;-71
2023/09/10 14:26:03;;;;;;;0.70;0.20;;;29.50;1.00;;;;;;4893296;29;20449;-70
2023/09/10 14:28:31;;;;;;;0.70;0.20;;;29.50;1.00;;;;;;4893382;29;20453;-69
2023/09/10 14:30:59;;;;;;;1.00;0.70;;;29.60;1.00;;;;;;4893202;29;20473;-70
2023/09/10 14:33:28;;;;;;;0.70;0.10;;;29.60;1.00;;;;;;4892036;29;20932;-72
2023/09/10 14:35:57;;;;;;;0.70;0.20;;;29.60;1.00;;;;;;4894884;29;20933;-71
2023/09/10 14:38:27;;;;;;;0.70;0.10;;;29.60;1.00;;;;;;4895095;29;20536;-69
2023/09/10 14:40:56;;;;;;;0.70;0.10;;;;;;;;;;4888106;29;20454;-71
2023/09/10 14:43:25;;;;;;;0.70;0.30;;;;;;;;;;4886280;29;21010;-73
2023/09/10 14:45:53;;;;;;;0.70;0.10;;;29.70;1.00;;;;;;4890800;29;20560;-69
2023/09/10 14:48:21;;;;;;;0.70;0.10;;;29.70;1.00;;;;;;4896117;29;20465;-69
2023/09/10 14:50:49;;;;;;;0.70;0.10;;;29.80;1.00;;;;;;4893904;29;20473;-70
2023/09/10 14:53:17;;;;;;;0.70;0.20;;;27.30;1.00;;;;;;4888878;29;20503;-70
2023/09/10 14:55:45;;;;;;;0.70;0.23;;;29.80;1.00;;;;;;4890498;29;20480;-71
2023/09/10 14:58:22;;;;;;;0.70;0.20;;;;;;;;;;4893935;29;20472;-70
2023/09/10 15:00:51;;;;;;;0.90;0.50;;;;;;;;;;4891656;29;20952;-68
2023/09/10 15:03:21;;;;;;;0.70;0.20;;;30.00;1.00;;;;;;4894929;29;20563;-70
2023/09/10 15:05:52;;;;;;;0.70;0.10;;;;;;;;;;4894882;29;20464;-71
2023/09/10 15:08:22;;;;;;;0.70;0.13;;;;;;;;;;4892917;29;20450;-73
2023/09/10 15:10:50;;;;;;;0.70;0.10;;;30.10;1.00;;;;;;4884816;29;20469;-71
2023/09/10 15:13:19;;;;;;;0.70;0.20;;;30.10;1.00;;;;;;4894616;29;20501;-71
2023/09/10 15:15:47;;;;;;;0.70;0.20;;;30.20;1.00;;;;;;4885879;29;20457;-71
2023/09/10 15:18:21;;;;;;;0.90;0.20;;;30.20;1.00;;;;;;4882905;29;20578;-72
2023/09/10 15:20:49;;;;;;;0.70;0.10;;;30.20;1.00;;;;;;4888544;29;20454;-70
2023/09/10 15:23:17;;;;;;;0.70;0.10;;;30.30;1.00;;;;;;4893498;29;20489;-71
2023/09/10 15:25:46;;;;;;;0.70;0.20;;;30.40;1.00;;;;;;4895077;29;20474;-70
2023/09/10 15:28:14;;;;;;;0.70;0.20;;;30.50;1.00;;;;;;4891228;29;20903;-70
2023/09/10 15:30:43;;;;;;;0.70;0.20;;;30.50;1.00;;;;;;4875985;29;20894;-70
2023/09/10 15:33:11;;;;;;;1.03;0.20;;;30.50;1.00;;;;;;4893050;29;20469;-71
2023/09/10 15:35:39;;;;;;;1.73;0.50;;;30.40;1.00;;;;;;4894497;29;20869;-71
2023/09/10 15:38:08;;;;;;;0.70;0.10;;;30.50;1.00;;;;;;4894284;29;20702;-71
2023/09/10 15:40:35;;;;;;;1.03;0.40;;;30.50;1.00;;;;;;4894827;29;20469;-70
2023/09/10 15:43:04;;;;;;;4.50;0.47;;;30.60;1.00;;;;;;4894561;29;20507;-70
2023/09/10 15:45:31;;;;;;;0.70;0.40;;;30.50;1.00;;;;;;4894994;29;21023;-72
2023/09/10 15:48:02;;;;;;;1.57;1.13;;;29.10;1.00;;;;;;4895701;29;20548;-69
2023/09/10 15:50:34;;;;;;;0.70;0.10;;;30.50;1.00;;;;;;4889469;29;20450;-70
2023/09/10 15:53:02;;;;;;;0.70;0.10;;;30.60;1.00;;;;;;4894360;29;20460;-69
2023/09/10 15:55:30;;;;;;;0.70;0.10;;;30.60;1.00;;;;;;4894018;29;20441;-70
2023/09/10 15:57:59;;;;;;;0.70;0.10;;;30.70;1.00;;;;;;4895947;29;20449;-70
2023/09/10 16:00:27;;;;;;;0.70;0.20;;;30.70;1.00;;;;;;4897332;29;21111;-70
2023/09/10 16:02:54;;;;;;;0.70;0.17;;;30.90;1.00;;;;;;4889802;29;21007;-70
2023/09/10 16:05:24;;;;;;;0.77;0.33;;;30.90;1.00;;;;;;4895736;29;20453;-70
2023/09/10 16:07:52;;;;;;;0.70;0.10;;;;;;;;;;4895469;29;20449;-70
2023/09/10 16:10:20;;;;;;;0.70;0.10;;;30.90;1.00;;;;;;4889619;29;20458;-71
2023/09/10 16:12:49;;;;;;;0.70;0.10;;;30.90;1.00;;;;;;4896223;29;20485;-70
2023/09/10 16:15:20;;;;;;;0.70;0.20;;;30.90;1.00;;;;;;4895680;29;20596;-70
2023/09/10 16:18:05;;;;;;;0.70;0.20;;;;;;;;;;4896842;29;21325;-71
2023/09/10 16:20:35;;;;;;;0.83;0.57;;;;;;;;;;4893784;29;20465;-69
2023/09/10 16:23:03;;;;;;;0.70;0.20;;;30.80;1.00;;;;;;4879002;29;20481;-70
2023/09/10 16:25:32;;;;;;;0.90;0.60;;;30.80;1.00;;;;;;4883792;29;20467;-69
2023/09/10 16:28:03;;;;;;;0.80;0.20;;;;;;;;;;4898255;29;20552;-71
2023/09/10 16:30:36;;;;;;;0.70;0.20;;;30.80;1.00;;;;;;4897609;29;20469;-70
2023/09/10 16:33:04;;;;;;;0.70;0.20;;;30.70;1.00;;;;;;4881981;29;20460;-68
2023/09/10 16:35:32;;;;;;;0.97;0.87;;;30.60;1.00;;;;;;4897401;29;20465;-69
2023/09/10 16:38:01;;;;;;;0.70;0.10;;;30.60;1.00;;;;;;4898137;29;20532;-70
2023/09/10 16:40:30;;;;;;;0.70;0.20;;;;;;;;;;4890263;29;20449;-70
2023/09/10 16:42:58;;;;;;;0.70;0.20;;;30.60;1.00;;;;;;4950140;23;20566;-70
2023/09/10 16:45:25;;;;;;;0.70;0.30;;;30.50;1.00;;;;;;4877835;29;20853;-70
2023/09/10 16:47:53;;;;;;;0.80;0.63;;;30.40;1.00;;;;;;4878756;29;20482;-70
2023/09/10 16:50:21;;;;;;;0.70;0.10;;;30.40;1.00;;;;;;4878394;29;20832;-70
2023/09/10 16:52:49;;;;;;;0.70;0.20;;;30.30;1.00;;;;;;4878515;29;20484;-70
2023/09/10 16:55:19;;;;;;;0.70;0.10;;;30.20;1.00;;;;;;4878160;29;20462;-67
2023/09/10 16:57:46;;;;;;;0.70;0.10;;;30.10;1.00;;;;;;4878874;29;21032;-70
2023/09/10 17:00:15;;;;;;;0.70;0.20;;;30.00;1.00;;;;;;4878843;29;20454;-69
2023/09/10 17:02:43;;;;;;;0.70;0.20;;;29.90;1.00;;;;;;4877673;29;20513;-69
2023/09/10 17:05:11;;;;;;;0.70;0.20;;;29.90;1.00;;;;;;4875363;29;21091;-71
2023/09/10 17:07:41;;;;;;;0.70;0.20;;;29.80;1.00;;;;;;4877500;29;20473;-71
2023/09/10 17:10:10;;;;;;;0.70;0.10;;;29.80;1.00;;;;;;4877252;29;20470;-71
2023/09/10 17:12:39;;;;;;;0.70;0.10;;;29.70;1.00;;;;;;4877675;29;20485;-70
2023/09/10 17:15:08;;;;;;;0.70;0.10;;;29.70;1.00;;;;;;4876181;29;20980;-69
2023/09/10 17:17:38;;;;;;;0.70;0.10;;;29.50;1.00;;;;;;4876919;29;20514;-70
2023/09/10 17:20:08;;;;;;;0.70;0.20;;;29.50;1.00;;;;;;4875777;29;20462;-67
2023/09/10 17:22:36;;;;;;;0.70;0.10;;;29.40;1.00;;;;;;4876555;29;20470;-69
2023/09/10 17:25:05;;;;;;;0.70;0.10;;;29.20;1.00;;;;;;4871548;29;20491;-69